Sedov — UELO — position and weather

sailwx.info

Track history (hours):
 
Tides and Currents Weather Stations Pressure Air Temp Water Temp Dewpoint Dewpoint Depression Visibility Wind Speed Wind Dir Waves Ship Positions

Sedov (Russia)

Last reported at 2020-Mar-25 00:57 UTC. Time now 2020-Apr-06 16:55 UTC.
Position S 34°28' E 018°12'.
Warning: this ship's position is 12 days out of date.

Length 108 m; draft 6.2 m.

Type: Sailing vessel. MMSI: 273510000.

Date/timePositionNaut miles runAvg speedWind from/ knotsBaromVisibWave heightAir tempDewpointWater temp
2020-Mar-25 00:57S 34°28' E 018°12'4 8.2
2020-Mar-25 00:28S 34°24' E 018°12'11 7.5
2020-Mar-24 22:59S 34°13' E 018°12'11 6.7
2020-Mar-24 21:25S 34°02' E 018°13'8 6.0
2020-Mar-24 20:00S 33°54' E 018°16'3 6.4
2020-Mar-24 19:30S 33°52' E 018°18'4 8.8
2020-Mar-24 19:00S 33°52' E 018°24'4 2.4
2020-Mar-24 17:30S 33°55' E 018°26'0 0.0
2020-Mar-24 17:00S 33°55' E 018°26'0 0.0
2020-Mar-24 15:30S 33°55' E 018°26'0 0.0
2020-Mar-24 14:00S 33°55' E 018°26'0 0.0
2020-Mar-24 13:30S 33°55' E 018°26'0 0.0
2020-Mar-24 13:00S 33°55' E 018°26'1 0.3
2020-Mar-24 09:59S 33°54' E 018°25'0 0.0
2020-Mar-24 08:29S 33°54' E 018°25'0 0.0
2020-Mar-24 07:59S 33°54' E 018°25'0 0.0
2020-Mar-24 07:29S 33°54' E 018°25'0 0.0
2020-Mar-24 05:26S 33°54' E 018°25'0 0.0
2020-Mar-24 04:29S 33°54' E 018°25'0 0.0
2020-Mar-24 01:29S 33°54' E 018°25'0 0.0
2020-Mar-24 00:29S 33°54' E 018°25'0 0.0
2020-Mar-23 23:29S 33°54' E 018°25'0 0.0
2020-Mar-23 20:59S 33°54' E 018°25'0 0.0
2020-Mar-23 19:29S 33°54' E 018°25'0 0.0
2020-Mar-23 13:29S 33°54' E 018°25'0 0.0
2020-Mar-23 12:59S 33°54' E 018°25'0 0.0
2020-Mar-23 11:29S 33°54' E 018°25'0 0.0
2020-Mar-23 10:56S 33°54' E 018°25'0 0.0
2020-Mar-23 09:29S 33°54' E 018°25'0 0.0
2020-Mar-23 07:59S 33°54' E 018°25'0 0.0
2020-Mar-23 05:29S 33°54' E 018°25'0 0.0
2020-Mar-23 04:26S 33°54' E 018°25'0 0.0
2020-Mar-23 02:29S 33°54' E 018°25'0 0.0
2020-Mar-23 01:59S 33°54' E 018°25'0 0.0
2020-Mar-23 01:29S 33°54' E 018°25'0 0.0
2020-Mar-22 23:59S 33°54' E 018°25'0 0.0
2020-Mar-22 22:29S 33°54' E 018°25'0 0.0
2020-Mar-22 21:59S 33°54' E 018°25'0 0.0
2020-Mar-22 19:59S 33°54' E 018°25'0 0.0
2020-Mar-22 19:29S 33°54' E 018°25'0 0.0
2020-Mar-22 18:29S 33°54' E 018°25'0 0.0
2020-Mar-22 17:29S 33°54' E 018°25'0 0.0
2020-Mar-22 15:59S 33°54' E 018°25'0 0.0
2020-Mar-22 11:59S 33°54' E 018°25'0 0.0
2020-Mar-22 08:29S 33°54' E 018°25'0 0.0
2020-Mar-22 06:01S 33°54' E 018°25'0 0.0
2020-Mar-22 05:01S 33°54' E 018°25'0 0.0
2020-Mar-22 03:31S 33°54' E 018°25'0 0.0
2020-Mar-22 02:31S 33°54' E 018°25'0 0.0
2020-Mar-21 23:31S 33°54' E 018°25'0 0.0
2020-Mar-21 22:31S 33°54' E 018°25'0 0.0
2020-Mar-21 20:31S 33°54' E 018°25'0 0.0
2020-Mar-21 19:31S 33°54' E 018°25'0 0.0
2020-Mar-21 18:01S 33°54' E 018°25'0 0.0
2020-Mar-21 17:31S 33°54' E 018°25'0 0.0
2020-Mar-21 16:31S 33°54' E 018°25'0 0.0
2020-Mar-21 13:31S 33°54' E 018°25'0 0.0
2020-Mar-21 11:31S 33°54' E 018°25'0 0.0
2020-Mar-21 09:31S 33°54' E 018°25'0 0.0
2020-Mar-21 03:01S 33°54' E 018°25'0 0.0
2020-Mar-21 02:31S 33°54' E 018°25'0 0.0
2020-Mar-21 02:01S 33°54' E 018°25'0 0.0
2020-Mar-21 01:31S 33°54' E 018°25'0 0.0
2020-Mar-21 01:01S 33°54' E 018°25'0 0.0
2020-Mar-21 00:01S 33°54' E 018°25'0 0.0
2020-Mar-20 23:00S 33°54' E 018°25'0 0.0
2020-Mar-20 21:31S 33°54' E 018°25'0 0.0
2020-Mar-20 21:01S 33°54' E 018°25'0 0.0
2020-Mar-20 20:30S 33°54' E 018°25'0 0.0
2020-Mar-20 19:31S 33°54' E 018°25'0 0.0
2020-Mar-20 19:01S 33°54' E 018°25'0 0.0
2020-Mar-20 17:01S 33°54' E 018°25'0 0.0
2020-Mar-20 16:01S 33°54' E 018°25'0 0.0
2020-Mar-20 14:31S 33°54' E 018°25'0 0.0
2020-Mar-20 14:01S 33°54' E 018°25'0 0.0
2020-Mar-20 13:01S 33°54' E 018°25'0 0.0
2020-Mar-20 11:01S 33°54' E 018°25'0 0.0
2020-Mar-20 09:01S 33°54' E 018°25'0 0.0
2020-Mar-20 08:31S 33°54' E 018°25'0 0.0
2020-Mar-20 06:01S 33°54' E 018°25'0 0.0
2020-Mar-20 05:31S 33°54' E 018°25'0 0.0
2020-Mar-20 03:01S 33°54' E 018°25'0 0.0
2020-Mar-20 02:31S 33°54' E 018°25'0 0.0
2020-Mar-20 00:01S 33°54' E 018°25'0 0.0
2020-Mar-19 23:01S 33°54' E 018°25'0 0.0
2020-Mar-19 22:31S 33°54' E 018°25'0 0.0
2020-Mar-19 20:01S 33°54' E 018°25'0 0.0
2020-Mar-19 19:31S 33°54' E 018°25'0 0.0
2020-Mar-19 18:31S 33°54' E 018°25'0 0.0
2020-Mar-19 16:31S 33°54' E 018°25'0 0.0
2020-Mar-19 14:31S 33°54' E 018°25'0 0.0
2020-Mar-19 14:01S 33°54' E 018°25'0 0.0
2020-Mar-19 13:31S 33°54' E 018°25'0 0.0
2020-Mar-19 10:01S 33°54' E 018°25'0 0.0
2020-Mar-19 09:30S 33°54' E 018°25'0 0.0
2020-Mar-19 08:31S 33°54' E 018°25'0 0.0
2020-Mar-19 06:31S 33°54' E 018°25'0 0.0
2020-Mar-19 05:31S 33°54' E 018°25'0 0.0
2020-Mar-19 05:01S 33°54' E 018°25'0 0.0
2020-Mar-19 04:31S 33°54' E 018°25'0 0.0
2020-Mar-19 03:31S 33°54' E 018°25'0 0.0
2020-Mar-19 02:31S 33°54' E 018°25'0 0.0
2020-Mar-19 01:01S 33°54' E 018°25'0 0.0
2020-Mar-19 00:01S 33°54' E 018°25'0 0.0
2020-Mar-18 20:01S 33°54' E 018°25'0 0.0
2020-Mar-18 18:31S 33°54' E 018°25'0 0.0
2020-Mar-18 13:30S 33°54' E 018°25'0 0.0
2020-Mar-18 12:31S 33°54' E 018°25'0 0.0
2020-Mar-18 12:01S 33°54' E 018°25'0 0.0
2020-Mar-18 10:01S 33°54' E 018°25'0 0.0
2020-Mar-18 09:31S 33°54' E 018°25'0 0.0
2020-Mar-18 09:01S 33°54' E 018°25'0 0.0
2020-Mar-18 08:31S 33°54' E 018°25'0 0.0
2020-Mar-18 03:30S 33°54' E 018°25'0 0.0
2020-Mar-18 02:31S 33°54' E 018°25'0 0.0
2020-Mar-18 02:01S 33°54' E 018°25'0 0.0
2020-Mar-18 01:01S 33°54' E 018°25'0 0.0
2020-Mar-17 20:31S 33°54' E 018°25'0 0.0
2020-Mar-17 18:01S 33°54' E 018°25'0 0.0
2020-Mar-17 16:31S 33°54' E 018°25'1 0.2
2020-Mar-17 13:00S 33°55' E 018°26'0 0.0
2020-Mar-17 10:31S 33°55' E 018°26'0 0.0
2020-Mar-17 09:30S 33°55' E 018°26'2 0.6
2020-Mar-17 06:31S 33°53' E 018°27'1 1.8
2020-Mar-17 06:00S 33°54' E 018°27'9 3.8
2020-Mar-17 03:30S 33°51' E 018°16'2 0.9
2020-Mar-17 01:00S 33°54' E 018°16'1 0.4
2020-Mar-16 23:00S 33°53' E 018°15'2 1.4
2020-Mar-16 21:30S 33°51' E 018°17'1 0.7
2020-Mar-16 19:30S 33°52' E 018°18'7 3.3
2020-Mar-16 17:30S 33°53' E 018°26'6 2.5
2020-Mar-16 15:00S 33°52' E 018°19'4 7.6
2020-Mar-16 14:29S 33°50' E 018°15'1 0.5
2020-Mar-16 12:00S 33°50' E 018°13'2 0.3
2020-Mar-16 07:00S 33°51' E 018°14'2 4.7
2020-Mar-16 06:30S 33°49' E 018°12'1 1.4
2020-Mar-16 06:00S 33°49' E 018°11'1 1.0
2020-Mar-16 05:30S 33°50' E 018°11'2 1.2
2020-Mar-16 03:30S 33°50' E 018°14'19 1.4
2020-Mar-15 13:48S 33°59' E 017°54'5 1.6
2020-Mar-15 10:57S 34°02' E 017°58'4 3.9
2020-Mar-15 09:56S 33°59' E 018°01'2 1.6
2020-Mar-15 08:55S 33°58' E 018°02'13 2.3
2020-Mar-15 03:03S 33°52' E 017°48'4 7.5
2020-Mar-15 02:30S 33°51' E 017°43'  
Track history (hours):
 
Tides and Currents Weather Stations Pressure Air Temp Water Temp Dewpoint Dewpoint Depression Visibility Wind Speed Wind Dir Waves Ship Positions

Sedov (Russia)

Last reported at 2020-Mar-25 00:57 UTC. Time now 2020-Apr-06 16:55 UTC.
Position S 34°28' E 018°12'.
Warning: this ship's position is 12 days out of date.

Length 108 m; draft 6.2 m.

Type: Sailing vessel. MMSI: 273510000.

Date/timePositionNaut miles runAvg speedWind from/ knotsBaromVisibWave heightAir tempDewpointWater temp
2020-Mar-25 00:57S 34°28' E 018°12'4 8.2
2020-Mar-25 00:28S 34°24' E 018°12'11 7.5
2020-Mar-24 22:59S 34°13' E 018°12'11 6.7
2020-Mar-24 21:25S 34°02' E 018°13'8 6.0
2020-Mar-24 20:00S 33°54' E 018°16'3 6.4
2020-Mar-24 19:30S 33°52' E 018°18'4 8.8
2020-Mar-24 19:00S 33°52' E 018°24'4 2.4
2020-Mar-24 17:30S 33°55' E 018°26'0 0.0
2020-Mar-24 17:00S 33°55' E 018°26'0 0.0
2020-Mar-24 15:30S 33°55' E 018°26'0 0.0
2020-Mar-24 14:00S 33°55' E 018°26'0 0.0
2020-Mar-24 13:30S 33°55' E 018°26'0 0.0
2020-Mar-24 13:00S 33°55' E 018°26'1 0.3
2020-Mar-24 09:59S 33°54' E 018°25'0 0.0
2020-Mar-24 08:29S 33°54' E 018°25'0 0.0
2020-Mar-24 07:59S 33°54' E 018°25'0 0.0
2020-Mar-24 07:29S 33°54' E 018°25'0 0.0
2020-Mar-24 05:26S 33°54' E 018°25'0 0.0
2020-Mar-24 04:29S 33°54' E 018°25'0 0.0
2020-Mar-24 01:29S 33°54' E 018°25'0 0.0
2020-Mar-24 00:29S 33°54' E 018°25'0 0.0
2020-Mar-23 23:29S 33°54' E 018°25'0 0.0
2020-Mar-23 20:59S 33°54' E 018°25'0 0.0
2020-Mar-23 19:29S 33°54' E 018°25'0 0.0
2020-Mar-23 13:29S 33°54' E 018°25'0 0.0
2020-Mar-23 12:59S 33°54' E 018°25'0 0.0
2020-Mar-23 11:29S 33°54' E 018°25'0 0.0
2020-Mar-23 10:56S 33°54' E 018°25'0 0.0
2020-Mar-23 09:29S 33°54' E 018°25'0 0.0
2020-Mar-23 07:59S 33°54' E 018°25'0 0.0
2020-Mar-23 05:29S 33°54' E 018°25'0 0.0
2020-Mar-23 04:26S 33°54' E 018°25'0 0.0
2020-Mar-23 02:29S 33°54' E 018°25'0 0.0
2020-Mar-23 01:59S 33°54' E 018°25'0 0.0
2020-Mar-23 01:29S 33°54' E 018°25'0 0.0
2020-Mar-22 23:59S 33°54' E 018°25'0 0.0
2020-Mar-22 22:29S 33°54' E 018°25'0 0.0
2020-Mar-22 21:59S 33°54' E 018°25'0 0.0
2020-Mar-22 19:59S 33°54' E 018°25'0 0.0
2020-Mar-22 19:29S 33°54' E 018°25'0 0.0
2020-Mar-22 18:29S 33°54' E 018°25'0 0.0
2020-Mar-22 17:29S 33°54' E 018°25'0 0.0
2020-Mar-22 15:59S 33°54' E 018°25'0 0.0
2020-Mar-22 11:59S 33°54' E 018°25'0 0.0
2020-Mar-22 08:29S 33°54' E 018°25'0 0.0
2020-Mar-22 06:01S 33°54' E 018°25'0 0.0
2020-Mar-22 05:01S 33°54' E 018°25'0 0.0
2020-Mar-22 03:31S 33°54' E 018°25'0 0.0
2020-Mar-22 02:31S 33°54' E 018°25'0 0.0
2020-Mar-21 23:31S 33°54' E 018°25'0 0.0
2020-Mar-21 22:31S 33°54' E 018°25'0 0.0
2020-Mar-21 20:31S 33°54' E 018°25'0 0.0
2020-Mar-21 19:31S 33°54' E 018°25'0 0.0
2020-Mar-21 18:01S 33°54' E 018°25'0 0.0
2020-Mar-21 17:31S 33°54' E 018°25'0 0.0
2020-Mar-21 16:31S 33°54' E 018°25'0 0.0
2020-Mar-21 13:31S 33°54' E 018°25'0 0.0
2020-Mar-21 11:31S 33°54' E 018°25'0 0.0
2020-Mar-21 09:31S 33°54' E 018°25'0 0.0
2020-Mar-21 03:01S 33°54' E 018°25'0 0.0
2020-Mar-21 02:31S 33°54' E 018°25'0 0.0
2020-Mar-21 02:01S 33°54' E 018°25'0 0.0
2020-Mar-21 01:31S 33°54' E 018°25'0 0.0
2020-Mar-21 01:01S 33°54' E 018°25'0 0.0
2020-Mar-21 00:01S 33°54' E 018°25'0 0.0
2020-Mar-20 23:00S 33°54' E 018°25'0 0.0
2020-Mar-20 21:31S 33°54' E 018°25'0 0.0
2020-Mar-20 21:01S 33°54' E 018°25'0 0.0
2020-Mar-20 20:30S 33°54' E 018°25'0 0.0
2020-Mar-20 19:31S 33°54' E 018°25'0 0.0
2020-Mar-20 19:01S 33°54' E 018°25'0 0.0
2020-Mar-20 17:01S 33°54' E 018°25'0 0.0
2020-Mar-20 16:01S 33°54' E 018°25'0 0.0
2020-Mar-20 14:31S 33°54' E 018°25'0 0.0
2020-Mar-20 14:01S 33°54' E 018°25'0 0.0
2020-Mar-20 13:01S 33°54' E 018°25'0 0.0
2020-Mar-20 11:01S 33°54' E 018°25'0 0.0
2020-Mar-20 09:01S 33°54' E 018°25'0 0.0
2020-Mar-20 08:31S 33°54' E 018°25'0 0.0
2020-Mar-20 06:01S 33°54' E 018°25'0 0.0
2020-Mar-20 05:31S 33°54' E 018°25'0 0.0
2020-Mar-20 03:01S 33°54' E 018°25'0 0.0
2020-Mar-20 02:31S 33°54' E 018°25'0 0.0
2020-Mar-20 00:01S 33°54' E 018°25'0 0.0
2020-Mar-19 23:01S 33°54' E 018°25'0 0.0
2020-Mar-19 22:31S 33°54' E 018°25'0 0.0
2020-Mar-19 20:01S 33°54' E 018°25'0 0.0
2020-Mar-19 19:31S 33°54' E 018°25'0 0.0
2020-Mar-19 18:31S 33°54' E 018°25'0 0.0
2020-Mar-19 16:31S 33°54' E 018°25'0 0.0
2020-Mar-19 14:31S 33°54' E 018°25'0 0.0
2020-Mar-19 14:01S 33°54' E 018°25'0 0.0
2020-Mar-19 13:31S 33°54' E 018°25'0 0.0
2020-Mar-19 10:01S 33°54' E 018°25'0 0.0
2020-Mar-19 09:30S 33°54' E 018°25'0 0.0
2020-Mar-19 08:31S 33°54' E 018°25'0 0.0
2020-Mar-19 06:31S 33°54' E 018°25'0 0.0
2020-Mar-19 05:31S 33°54' E 018°25'0 0.0
2020-Mar-19 05:01S 33°54' E 018°25'0 0.0
2020-Mar-19 04:31S 33°54' E 018°25'0 0.0
2020-Mar-19 03:31S 33°54' E 018°25'0 0.0
2020-Mar-19 02:31S 33°54' E 018°25'0 0.0
2020-Mar-19 01:01S 33°54' E 018°25'0 0.0
2020-Mar-19 00:01S 33°54' E 018°25'0 0.0
2020-Mar-18 20:01S 33°54' E 018°25'0 0.0
2020-Mar-18 18:31S 33°54' E 018°25'0 0.0
2020-Mar-18 13:30S 33°54' E 018°25'0 0.0
2020-Mar-18 12:31S 33°54' E 018°25'0 0.0
2020-Mar-18 12:01S 33°54' E 018°25'0 0.0
2020-Mar-18 10:01S 33°54' E 018°25'0 0.0
2020-Mar-18 09:31S 33°54' E 018°25'0 0.0
2020-Mar-18 09:01S 33°54' E 018°25'0 0.0
2020-Mar-18 08:31S 33°54' E 018°25'0 0.0
2020-Mar-18 03:30S 33°54' E 018°25'0 0.0
2020-Mar-18 02:31S 33°54' E 018°25'0 0.0
2020-Mar-18 02:01S 33°54' E 018°25'0 0.0
2020-Mar-18 01:01S 33°54' E 018°25'0 0.0
2020-Mar-17 20:31S 33°54' E 018°25'0 0.0
2020-Mar-17 18:01S 33°54' E 018°25'0 0.0
2020-Mar-17 16:31S 33°54' E 018°25'1 0.2
2020-Mar-17 13:00S 33°55' E 018°26'0 0.0
2020-Mar-17 10:31S 33°55' E 018°26'0 0.0
2020-Mar-17 09:30S 33°55' E 018°26'2 0.6
2020-Mar-17 06:31S 33°53' E 018°27'1 1.8
2020-Mar-17 06:00S 33°54' E 018°27'9 3.8
2020-Mar-17 03:30S 33°51' E 018°16'2 0.9
2020-Mar-17 01:00S 33°54' E 018°16'1 0.4
2020-Mar-16 23:00S 33°53' E 018°15'2 1.4
2020-Mar-16 21:30S 33°51' E 018°17'1 0.7
2020-Mar-16 19:30S 33°52' E 018°18'7 3.3
2020-Mar-16 17:30S 33°53' E 018°26'6 2.5
2020-Mar-16 15:00S 33°52' E 018°19'4 7.6
2020-Mar-16 14:29S 33°50' E 018°15'1 0.5
2020-Mar-16 12:00S 33°50' E 018°13'2 0.3
2020-Mar-16 07:00S 33°51' E 018°14'2 4.7
2020-Mar-16 06:30S 33°49' E 018°12'1 1.4
2020-Mar-16 06:00S 33°49' E 018°11'1 1.0
2020-Mar-16 05:30S 33°50' E 018°11'2 1.2
2020-Mar-16 03:30S 33°50' E 018°14'19 1.4
2020-Mar-15 13:48S 33°59' E 017°54'5 1.6
2020-Mar-15 10:57S 34°02' E 017°58'4 3.9
2020-Mar-15 09:56S 33°59' E 018°01'2 1.6
2020-Mar-15 08:55S 33°58' E 018°02'13 2.3
2020-Mar-15 03:03S 33°52' E 017°48'4 7.5
2020-Mar-15 02:30S 33°51' E 017°43'  

Dump ship's entire track history